Time;durP1;ratioP1;P1;durP2;ratioP2;P2;SDS_P1;SDS_P2;PMS_P1;PMS_P2;Temp;Humidity;BMP_temperature;BMP_pressure;BME280_temperature;BME280_humidity;BME280_pressure;Samples;Min_cycle;Max_cycle;Signal;HPM_P1;HPM_P2
2022/12/26 00:00:50;;;;;;;;;6.00;5.00;;;;;11.24;87.40;99279.09;5036081;28;8847;-56
2022/12/26 00:03:18;;;;;;;;;4.00;4.00;;;;;11.24;86.92;99276.44;5035686;28;8837;-56
2022/12/26 00:05:46;;;;;;;;;0.00;0.00;;;;;11.24;86.85;99276.44;5035386;28;8863;-57
2022/12/26 00:08:14;;;;;;;;;5.25;5.00;;;;;11.26;86.83;99268.31;5036170;28;8813;-58
2022/12/26 00:10:41;;;;;;;;;5.50;4.50;;;;;11.26;87.05;99269.16;5035991;28;8808;-55
2022/12/26 00:13:09;;;;;;;;;4.50;4.50;;;;;11.28;87.20;99261.00;5036368;28;8963;-57
2022/12/26 00:15:57;;;;;;;;;3.75;3.50;;;;;11.29;87.17;99260.03;5035969;28;8864;-55
2022/12/26 00:18:25;;;;;;;;;6.00;6.00;;;;;11.30;86.68;99264.38;5036214;28;8946;-56
2022/12/26 00:20:53;;;;;;;;;4.00;3.50;;;;;11.31;86.88;99263.41;5036121;28;8844;-57
2022/12/26 00:23:20;;;;;;;;;3.75;3.75;;;;;11.31;87.30;99261.56;5035979;28;8828;-55
2022/12/26 00:25:48;;;;;;;;;2.00;2.00;;;;;11.32;87.21;99263.25;5035916;28;8859;-58
2022/12/26 00:28:16;;;;;;;;;5.00;5.00;;;;;11.33;87.58;99270.28;5035714;28;8825;-55
2022/12/26 00:30:43;;;;;;;;;1.00;1.00;;;;;11.33;86.82;99270.28;5035731;28;8910;-57
2022/12/26 00:33:11;;;;;;;;;3.25;3.00;;;;;11.34;87.48;99263.09;5035895;28;8817;-57
2022/12/26 00:35:39;;;;;;;;;3.00;3.00;;;;;11.34;87.50;99269.28;5036052;28;9551;-58
2022/12/26 00:38:07;;;;;;;;;3.00;3.00;;;;;11.35;87.51;99262.97;5035789;28;8906;-58
2022/12/26 00:40:35;;;;;;;;;3.50;2.00;;;;;11.36;87.38;99269.97;5035855;28;8855;-58
2022/12/26 00:43:03;;;;;;;;;3.00;3.00;;;;;11.37;87.55;99266.31;5036995;28;8846;-58
2022/12/26 00:45:31;;;;;;;;;6.75;4.50;;;;;11.39;87.47;99264.34;5039845;28;8959;-56
2022/12/26 00:47:58;;;;;;;;;4.00;3.75;;;;;11.40;87.30;99259.88;5039774;28;8860;-57
2022/12/26 00:50:26;;;;;;;;;3.50;2.00;;;;;11.39;87.68;99261.69;5039863;28;9518;-55
2022/12/26 00:53:01;;;;;;;;;1.50;1.50;;;;;11.42;87.30;99269.41;5039193;28;8863;-58
2022/12/26 00:55:29;;;;;;;;;3.00;3.00;;;;;11.44;87.43;99262.09;5039454;28;8867;-58
2022/12/26 00:57:56;;;;;;;;;4.00;4.00;;;;;11.45;87.45;99258.44;5038834;28;8832;-58
2022/12/26 01:00:24;;;;;;;;;4.50;3.75;;;;;11.47;87.75;99245.84;5038965;28;8844;-57
2022/12/26 01:02:52;;;;;;;;;6.00;4.00;;;;;11.48;87.33;99255.50;5039673;28;8828;-58
2022/12/26 01:05:20;;;;;;;;;3.00;3.00;;;;;11.51;87.20;99244.53;5039530;28;8883;-56
2022/12/26 01:07:48;;;;;;;;;3.00;3.00;;;;;11.52;87.85;99248.88;5039572;28;8837;-58
2022/12/26 01:10:35;;;;;;;;;1.00;1.00;;;;;11.54;87.54;99260.22;5039678;28;8863;-58
2022/12/26 01:13:03;;;;;;;;;2.50;1.00;;;;;11.58;87.58;99264.34;5039119;28;8831;-58
2022/12/26 01:15:31;;;;;;;;;6.00;6.00;;;;;11.63;87.55;99267.44;5039713;28;8951;-58
2022/12/26 01:17:59;;;;;;;;;6.00;5.00;;;;;11.69;86.90;99266.00;5039764;28;9507;-58
2022/12/26 01:20:27;;;;;;;;;4.00;4.00;;;;;11.73;87.16;99267.38;5039151;28;8829;-58
2022/12/26 01:22:55;;;;;;;;;3.00;3.00;;;;;11.77;86.97;99253.63;5039171;28;8868;-57
2022/12/26 01:25:22;;;;;;;;;4.00;4.00;;;;;11.81;86.82;99262.13;5039033;28;8825;-58
2022/12/26 01:27:50;;;;;;;;;1.00;1.00;;;;;11.84;86.74;99280.53;5038865;28;8886;-59
2022/12/26 01:30:18;;;;;;;;;5.00;5.00;;;;;11.86;87.10;99263.41;5039296;28;8833;-58
2022/12/26 01:32:46;;;;;;;;;3.00;3.00;;;;;11.88;86.99;99277.44;5039118;28;8837;-58
2022/12/26 01:35:13;;;;;;;;;3.25;3.25;;;;;11.93;86.89;99279.66;5039040;28;9503;-58
2022/12/26 01:37:41;;;;;;;;;2.00;2.00;;;;;11.98;86.41;99287.09;5038747;28;8871;-58
2022/12/26 01:40:09;;;;;;;;;4.00;4.00;;;;;12.03;86.50;99292.84;5038648;28;8836;-58
2022/12/26 01:42:38;;;;;;;;;3.00;3.00;;;;;12.05;86.69;99293.50;5039044;28;8962;-59
2022/12/26 01:45:05;;;;;;;;;2.50;2.50;;;;;12.01;86.52;99281.44;5038517;28;8844;-57
2022/12/26 01:47:33;;;;;;;;;3.00;3.00;;;;;11.94;86.28;99274.19;5038994;28;8836;-58
2022/12/26 01:50:01;;;;;;;;;4.00;4.00;;;;;11.88;86.43;99279.25;5038376;28;8821;-58
2022/12/26 01:52:28;;;;;;;;;5.00;4.00;;;;;11.80;87.01;99288.00;5037973;28;8828;-58
2022/12/26 01:54:56;;;;;;;;;3.75;3.75;;;;;11.75;87.48;99284.91;5037749;28;8922;-58
2022/12/26 01:57:24;;;;;;;;;3.00;3.00;;;;;11.71;86.76;99291.53;5038010;28;8856;-58
2022/12/26 01:59:51;;;;;;;;;3.00;3.00;;;;;11.68;87.28;99289.16;5038172;28;8835;-58
2022/12/26 02:02:19;;;;;;;;;2.00;2.00;;;;;11.67;87.23;99298.13;5037220;28;8851;-58
2022/12/26 02:07:33;;;;;;;;;4.00;4.00;;;;;11.62;86.87;99296.91;5038399;28;8846;-58
2022/12/26 02:10:01;;;;;;;;;3.75;3.75;;;;;11.60;87.68;99307.69;5038262;28;8954;-56
2022/12/26 02:12:29;;;;;;;;;9.50;6.00;;;;;11.59;87.27;99318.53;5038289;28;8848;-58
2022/12/26 02:15:04;;;;;;;;;9.00;7.00;;;;;11.58;87.06;99323.00;5038151;28;8848;-60
2022/12/26 02:17:32;;;;;;;;;13.75;12.00;;;;;11.56;87.44;99316.94;5037765;28;8948;-58
2022/12/26 02:20:00;;;;;;;;;21.00;19.75;;;;;11.54;87.18;99305.56;5038294;28;8829;-58
2022/12/26 02:22:28;;;;;;;;;25.00;23.00;;;;;11.53;87.56;99292.41;5038082;28;8831;-58
2022/12/26 02:24:56;;;;;;;;;22.00;20.00;;;;;11.51;87.32;99316.53;5038065;28;8978;-60
2022/12/26 02:27:24;;;;;;;;;25.50;24.75;;;;;11.51;87.88;99327.19;5038296;28;8832;-59
2022/12/26 02:29:51;;;;;;;;;23.00;18.75;;;;;11.50;87.54;99336.19;5037776;28;8840;-58
2022/12/26 02:32:19;;;;;;;;;31.50;26.50;;;;;11.51;87.65;99337.84;5037859;28;9526;-59
2022/12/26 02:34:47;;;;;;;;;28.25;23.50;;;;;11.49;87.44;99338.97;5037764;28;8858;-58
2022/12/26 02:37:15;;;;;;;;;32.50;27.50;;;;;11.49;87.74;99333.66;5037706;28;8828;-58
2022/12/26 02:39:42;;;;;;;;;29.75;25.75;;;;;11.48;88.07;99318.63;5037510;28;8898;-58
2022/12/26 02:42:13;;;;;;;;;28.00;24.00;;;;;11.46;87.44;99329.44;5037906;28;8828;-59
2022/12/26 02:47:27;;;;;;;;;27.00;23.00;;;;;11.43;88.14;99312.88;5037886;28;8844;-58
2022/12/26 03:14:55;;;;;;;;;10.00;8.25;;;;;11.33;88.31;99315.59;5036021;28;8941;-58
2022/12/26 03:17:22;;;;;;;;;8.50;7.00;;;;;11.33;88.37;99320.91;5036800;28;8976;-58
2022/12/26 03:20:02;;;;;;;;;6.50;6.50;;;;;11.33;88.08;99318.25;5036726;28;8829;-58
2022/12/26 03:22:32;;;;;;;;;5.25;5.00;;;;;11.33;88.15;99326.25;5036570;28;8863;-58
2022/12/26 03:27:46;;;;;;;;;3.50;3.50;;;;;11.34;88.49;99324.41;5036537;28;8883;-59
2022/12/26 03:34:15;;;;;;;;;4.00;4.00;;;;;11.32;88.04;99321.06;5001616;28;9812;-59
2022/12/26 03:35:55;;;;;;;;;6.00;6.00;;;;;11.31;88.11;99320.19;5036728;28;8821;-58
2022/12/26 03:38:23;;;;;;;;;3.25;3.00;;;;;11.29;88.29;99316.84;5036674;28;8809;-58
2022/12/26 04:19:26;;;;;;;;;4.00;3.00;;;;;11.20;88.81;99348.81;5036157;28;8840;-58
2022/12/26 04:44:06;;;;;;;;;3.00;3.00;;;;;11.10;88.39;99385.28;5035810;28;8848;-58
2022/12/26 04:46:34;;;;;;;;;1.00;1.00;;;;;11.07;88.39;99381.06;5035589;28;8829;-59
2022/12/26 04:51:47;;;;;;;;;2.50;2.50;;;;;11.01;88.94;99384.28;5035777;28;8836;-58
2022/12/26 04:54:14;;;;;;;;;0.00;0.00;;;;;10.97;89.09;99382.91;5035369;28;8847;-58
2022/12/26 04:56:42;;;;;;;;;1.00;1.00;;;;;10.95;88.60;99392.00;5035478;28;8923;-58
2022/12/26 04:59:10;;;;;;;;;1.00;0.00;;;;;10.94;88.55;99395.66;5035669;28;8837;-57
2022/12/26 05:09:53;;;;;;;;;0.00;0.00;;;;;10.85;88.52;99412.47;5035246;28;8837;-58
2022/12/26 05:12:21;;;;;;;;;0.00;0.00;;;;;10.80;88.57;99415.53;5035709;28;8829;-58
2022/12/26 05:14:49;;;;;;;;;0.00;0.00;;;;;10.80;88.76;99414.69;5035587;28;8839;-58
2022/12/26 05:31:02;;;;;;;;;0.00;0.00;;;;;10.65;88.69;99408.91;5039241;28;8840;-58
2022/12/26 05:36:16;;;;;;;;;0.00;0.00;;;;;10.64;88.95;99420.53;5039292;28;8832;-58
2022/12/26 05:38:43;;;;;;;;;0.75;0.00;;;;;10.62;88.90;99422.47;5038925;28;8829;-59
2022/12/26 05:41:11;;;;;;;;;1.00;1.00;;;;;10.62;88.53;99421.66;5038778;28;8828;-58
2022/12/26 05:43:38;;;;;;;;;1.00;1.00;;;;;10.63;88.65;99421.50;5038967;28;8918;-58
2022/12/26 05:46:06;;;;;;;;;0.00;0.00;;;;;10.64;88.61;99420.53;5038763;28;8832;-58
2022/12/26 05:48:34;;;;;;;;;1.00;1.00;;;;;10.63;88.68;99410.84;5038981;28;8848;-58
2022/12/26 05:51:02;;;;;;;;;0.00;0.00;;;;;10.62;88.21;99406.50;5038730;28;8824;-58
2022/12/26 05:53:29;;;;;;;;;1.00;0.50;;;;;10.63;88.70;99407.34;5039015;28;8825;-58
2022/12/26 05:55:57;;;;;;;;;0.00;0.00;;;;;10.64;88.37;99414.34;5038885;28;8833;-58
2022/12/26 05:58:25;;;;;;;;;1.00;1.00;;;;;10.63;88.69;99413.50;5038729;28;8855;-58
2022/12/26 06:00:53;;;;;;;;;1.00;1.00;;;;;10.63;88.40;99410.84;5038757;28;8825;-58
2022/12/26 06:03:20;;;;;;;;;0.75;0.00;;;;;10.61;88.41;99415.47;5038579;28;8851;-58
2022/12/26 06:05:49;;;;;;;;;1.00;1.00;;;;;10.61;88.15;99418.13;5038800;28;8860;-59
2022/12/26 06:08:16;;;;;;;;;0.00;0.00;;;;;10.64;88.52;99435.66;5038434;28;8848;-58
2022/12/26 06:10:44;;;;;;;;;1.00;1.00;;;;;10.64;88.67;99435.66;5038641;28;9589;-58
2022/12/26 06:13:12;;;;;;;;;1.00;1.00;;;;;10.64;88.60;99431.19;5037916;28;8851;-58
2022/12/26 06:15:39;;;;;;;;;0.00;0.00;;;;;10.65;88.11;99432.88;5037909;28;8836;-59
2022/12/26 06:18:07;;;;;;;;;0.75;0.75;;;;;10.65;88.13;99422.22;5038320;28;8848;-59
2022/12/26 06:20:35;;;;;;;;;0.00;0.00;;;;;10.67;88.47;99419.41;5037910;28;8855;-58
2022/12/26 06:23:02;;;;;;;;;3.00;1.00;;;;;10.67;88.02;99427.38;5037924;28;8828;-58
2022/12/26 06:25:30;;;;;;;;;2.00;1.00;;;;;10.65;88.22;99410.72;5037960;28;8817;-58
2022/12/26 06:27:58;;;;;;;;;1.00;1.00;;;;;10.64;88.33;99401.91;5038610;28;9482;-58
2022/12/26 06:30:25;;;;;;;;;1.00;1.00;;;;;10.62;87.92;99398.50;5038173;28;8824;-59
2022/12/26 06:32:53;;;;;;;;;1.00;1.00;;;;;10.62;87.89;99403.84;5038138;28;8844;-58
2022/12/26 06:35:21;;;;;;;;;3.00;1.00;;;;;10.63;87.97;99392.19;5037907;28;8816;-59
2022/12/26 06:37:49;;;;;;;;;0.00;0.00;;;;;10.64;88.09;99409.88;5037939;28;8859;-58
2022/12/26 06:40:17;;;;;;;;;2.50;1.00;;;;;10.65;87.74;99400.91;5036693;28;8832;-58
2022/12/26 06:42:44;;;;;;;;;1.00;1.00;;;;;10.66;87.79;99399.94;5037584;28;8860;-58
2022/12/26 06:45:12;;;;;;;;;1.00;1.00;;;;;10.65;87.63;99400.91;5037744;28;8844;-59
2022/12/26 06:47:39;;;;;;;;;1.00;1.00;;;;;10.64;88.37;99404.56;5037573;28;8852;-59
2022/12/26 06:50:07;;;;;;;;;0.75;0.00;;;;;10.63;88.19;99423.31;5037421;28;8827;-58
2022/12/26 06:52:35;;;;;;;;;1.00;1.00;;;;;10.63;88.25;99424.16;5037484;28;8832;-59
2022/12/26 06:55:03;;;;;;;;;1.00;1.00;;;;;10.63;87.93;99413.50;5037623;28;8845;-56
2022/12/26 06:57:30;;;;;;;;;1.00;1.00;;;;;10.63;87.89;99423.31;5037590;28;8855;-59
2022/12/26 06:59:58;;;;;;;;;3.00;3.00;;;;;10.64;87.52;99428.53;5037342;28;8839;-59
2022/12/26 07:02:26;;;;;;;;;1.50;1.50;;;;;10.64;88.00;99415.22;5036994;28;8832;-59
2022/12/26 07:04:55;;;;;;;;;1.00;1.00;;;;;10.65;87.94;99410.72;5037142;28;8813;-59
2022/12/26 07:07:23;;;;;;;;;0.75;0.75;;;;;10.65;88.33;99411.56;5037127;28;8832;-59
2022/12/26 07:09:51;;;;;;;;;1.50;0.25;;;;;10.65;87.74;99427.53;5037450;28;8840;-58
2022/12/26 07:12:20;;;;;;;;;1.50;1.00;;;;;10.66;87.71;99428.38;5036697;28;8855;-59
2022/12/26 07:14:48;;;;;;;;;3.00;1.00;;;;;10.67;87.72;99430.91;5037221;28;8851;-59
2022/12/26 07:17:16;;;;;;;;;1.00;1.00;;;;;10.70;87.76;99433.28;5037182;28;8852;-59
2022/12/26 07:19:43;;;;;;;;;2.00;1.00;;;;;10.71;87.42;99436.81;5037274;28;8824;-58
2022/12/26 07:22:11;;;;;;;;;2.50;2.50;;;;;10.71;87.67;99420.81;5036785;28;8840;-59
2022/12/26 07:24:39;;;;;;;;;1.00;1.00;;;;;10.72;87.51;99435.81;5036734;28;8845;-59
2022/12/26 07:27:07;;;;;;;;;1.00;1.00;;;;;10.72;87.47;99438.50;5036550;28;8906;-58
2022/12/26 07:29:34;;;;;;;;;1.50;1.50;;;;;10.73;87.68;99462.31;5036493;28;8840;-59
2022/12/26 07:32:02;;;;;;;;;2.00;2.00;;;;;10.76;87.21;99462.03;5036603;28;8821;-58
2022/12/26 07:34:30;;;;;;;;;1.50;1.50;;;;;10.78;87.17;99469.91;5036803;28;8845;-58
2022/12/26 07:36:58;;;;;;;;;3.00;3.00;;;;;10.78;87.92;99470.72;5036716;28;8832;-59
2022/12/26 07:39:26;;;;;;;;;3.00;1.00;;;;;10.79;87.49;99468.94;5037007;28;8831;-56
2022/12/26 07:41:56;;;;;;;;;3.50;3.50;;;;;10.79;87.21;99477.78;5036380;28;8870;-59
2022/12/26 07:44:25;;;;;;;;;1.00;1.00;;;;;10.81;87.46;99486.47;5036528;28;8970;-58
2022/12/26 07:46:52;;;;;;;;;2.00;2.00;;;;;10.84;87.65;99485.34;5036459;28;8852;-59
2022/12/26 07:49:20;;;;;;;;;6.50;4.00;;;;;10.86;87.23;99484.22;5036275;28;8836;-59
2022/12/26 07:51:48;;;;;;;;;2.00;2.00;;;;;10.89;87.18;99472.44;5036155;28;8831;-58
2022/12/26 07:54:15;;;;;;;;;2.00;0.75;;;;;10.90;86.86;99468.81;5036472;28;8837;-59
2022/12/26 07:56:43;;;;;;;;;1.00;0.00;;;;;10.88;87.07;99468.13;5035805;28;8820;-59
2022/12/26 07:59:11;;;;;;;;;4.00;4.00;;;;;10.87;87.60;99483.25;5036680;28;8939;-59
2022/12/26 08:01:38;;;;;;;;;3.50;3.50;;;;;10.87;87.26;99477.94;5035934;28;8837;-58
2022/12/26 08:04:06;;;;;;;;;5.00;4.00;;;;;10.87;87.08;99483.25;5036041;28;8828;-59
2022/12/26 08:06:34;;;;;;;;;3.00;3.00;;;;;10.88;87.28;99482.28;5035984;28;8832;-57
2022/12/26 08:09:02;;;;;;;;;2.00;2.00;;;;;10.90;86.83;99484.78;5035949;28;8840;-60
2022/12/26 08:11:30;;;;;;;;;3.00;3.00;;;;;10.93;86.90;99490.69;5035851;28;8840;-60
2022/12/26 08:13:57;;;;;;;;;3.00;2.50;;;;;10.95;86.93;99493.22;5035967;28;8863;-60
2022/12/26 08:16:27;;;;;;;;;4.50;4.00;;;;;10.98;87.12;99509.78;5035835;28;8837;-60
2022/12/26 08:18:54;;;;;;;;;1.00;1.00;;;;;11.02;87.17;99510.38;5035711;28;8925;-59
2022/12/26 08:21:22;;;;;;;;;4.75;3.75;;;;;11.03;87.10;99507.56;5036033;28;8848;-60
2022/12/26 08:23:50;;;;;;;;;4.50;3.25;;;;;11.05;86.89;99508.28;5035450;28;8832;-60
2022/12/26 08:26:22;;;;;;;;;5.00;4.00;;;;;11.07;86.81;99506.31;5035638;28;8833;-61
2022/12/26 08:28:50;;;;;;;;;3.00;3.00;;;;;11.05;86.63;99500.28;5034972;28;8859;-59
2022/12/26 08:31:17;;;;;;;;;1.50;1.50;;;;;11.02;86.53;99505.88;5035558;28;8825;-58
2022/12/26 08:33:45;;;;;;;;;5.00;3.50;;;;;10.99;86.65;99506.13;5035138;28;8902;-58
2022/12/26 08:36:15;;;;;;;;;3.25;3.25;;;;;10.96;87.03;99503.75;5035023;28;8825;-59
2022/12/26 08:38:43;;;;;;;;;3.00;3.00;;;;;10.96;87.12;99502.91;5035339;28;8844;-60
2022/12/26 08:41:11;;;;;;;;;3.75;3.00;;;;;10.95;86.96;99502.09;5034277;28;8820;-57
2022/12/26 08:43:39;;;;;;;;;2.50;2.50;;;;;10.95;87.12;99515.41;5034019;28;8841;-57
2022/12/26 08:46:26;;;;;;;;;1.75;0.75;;;;;10.98;86.64;99515.13;5034300;28;8851;-59
2022/12/26 08:48:54;;;;;;;;;2.50;2.50;;;;;11.01;86.91;99514.00;5034426;28;8836;-58
2022/12/26 08:51:22;;;;;;;;;3.00;3.00;;;;;11.02;86.65;99510.38;5033912;28;8828;-57
2022/12/26 08:53:50;;;;;;;;;1.50;1.50;;;;;11.06;86.64;99517.13;5033759;28;8873;-59
2022/12/26 08:56:18;;;;;;;;;3.75;3.75;;;;;11.06;86.72;99528.59;5034155;28;8833;-60
2022/12/26 08:58:45;;;;;;;;;1.00;1.00;;;;;11.08;86.70;99523.97;5034626;28;9549;-59
2022/12/26 09:01:13;;;;;;;;;1.00;1.00;;;;;11.08;86.57;99521.31;5035018;28;8832;-59
2022/12/26 09:03:41;;;;;;;;;0.00;0.00;;;;;11.09;86.49;99530.97;5034996;28;8864;-60
2022/12/26 09:06:09;;;;;;;;;1.00;0.50;;;;;11.07;85.96;99532.94;5039256;28;8886;-59
2022/12/26 09:08:36;;;;;;;;;1.00;1.00;;;;;11.09;86.27;99524.84;5039135;28;8824;-60
2022/12/26 09:11:05;;;;;;;;;0.50;0.00;;;;;11.10;86.52;99535.38;5039613;28;8856;-59
2022/12/26 09:13:33;;;;;;;;;0.00;0.00;;;;;11.12;86.32;99538.72;5039410;28;8843;-58
2022/12/26 09:16:01;;;;;;;;;0.75;0.00;;;;;11.14;86.10;99536.75;5039697;28;8825;-60
2022/12/26 09:18:30;;;;;;;;;0.00;0.00;;;;;11.15;86.20;99538.44;5039229;28;8871;-60
2022/12/26 09:20:58;;;;;;;;;0.00;0.00;;;;;11.17;85.95;99530.31;5038928;28;8837;-59
2022/12/26 09:23:25;;;;;;;;;0.00;0.00;;;;;11.17;86.21;99539.19;5038572;28;8938;-58
2022/12/26 09:25:53;;;;;;;;;1.00;1.00;;;;;11.16;85.88;99539.31;5038400;28;8828;-60
2022/12/26 09:28:21;;;;;;;;;0.00;0.00;;;;;11.14;86.04;99544.75;5039118;28;9030;-57
2022/12/26 09:30:49;;;;;;;;;1.00;1.00;;;;;11.13;86.19;99542.22;5038838;28;8845;-59
2022/12/26 09:33:17;;;;;;;;;0.00;0.00;;;;;11.14;85.72;99551.94;5038882;28;8837;-59
2022/12/26 09:35:45;;;;;;;;;0.00;0.00;;;;;11.14;85.93;99547.41;5038527;28;8843;-58
2022/12/26 09:38:13;;;;;;;;;0.25;0.00;;;;;11.17;85.64;99554.31;5038437;28;8825;-59
2022/12/26 09:40:41;;;;;;;;;2.50;1.00;;;;;11.18;85.52;99548.00;5038551;28;8828;-60
2022/12/26 09:43:08;;;;;;;;;0.50;0.50;;;;;11.18;86.01;99548.00;5038579;28;8873;-59
2022/12/26 09:45:36;;;;;;;;;0.00;0.00;;;;;11.17;85.98;99559.63;5038294;28;9502;-60
2022/12/26 09:48:04;;;;;;;;;0.00;0.00;;;;;11.14;85.95;99555.41;5037593;28;8859;-59
2022/12/26 09:50:32;;;;;;;;;0.25;0.25;;;;;11.10;85.54;99561.16;5037973;28;8832;-60
2022/12/26 09:53:05;;;;;;;;;0.25;0.00;;;;;11.06;85.68;99559.75;5037911;28;8817;-59
2022/12/26 09:55:34;;;;;;;;;0.75;0.75;;;;;11.05;85.86;99566.88;5037842;28;9033;-60
2022/12/26 09:58:02;;;;;;;;;0.00;0.00;;;;;11.07;85.95;99561.44;5037871;28;8853;-60
2022/12/26 10:00:29;;;;;;;;;0.00;0.00;;;;;11.10;85.39;99567.34;5037174;28;9498;-59
2022/12/26 10:02:57;;;;;;;;;0.00;0.00;;;;;11.13;85.79;99582.19;5036669;28;8879;-60
2022/12/26 10:05:25;;;;;;;;;0.50;0.00;;;;;11.14;85.77;99573.25;5037337;28;8927;-59
2022/12/26 10:07:52;;;;;;;;;1.00;1.00;;;;;11.16;85.51;99576.63;5037545;28;8870;-60
2022/12/26 10:10:20;;;;;;;;;0.00;0.00;;;;;11.16;85.52;99580.09;5037083;28;8840;-58
2022/12/26 10:12:48;;;;;;;;;0.50;0.50;;;;;11.21;85.38;99585.06;5037586;28;8968;-58
2022/12/26 10:15:16;;;;;;;;;0.00;0.00;;;;;11.27;85.08;99580.03;5036440;28;8979;-60
2022/12/26 10:17:44;;;;;;;;;1.00;1.00;;;;;11.34;84.87;99583.84;5035866;28;8855;-59
2022/12/26 10:20:12;;;;;;;;;0.00;0.00;;;;;11.37;84.79;99570.22;5036029;28;8871;-58
2022/12/26 10:22:40;;;;;;;;;0.00;0.00;;;;;11.45;84.22;99567.72;5036318;28;8828;-58
2022/12/26 10:25:08;;;;;;;;;3.00;1.00;;;;;11.57;83.70;99576.44;5037048;28;8837;-58
2022/12/26 10:27:35;;;;;;;;;3.50;3.00;;;;;11.67;83.62;99556.84;5037263;28;8848;-59
2022/12/26 10:30:04;;;;;;;;;1.00;1.00;;;;;11.86;83.04;99548.88;5037191;28;8887;-60
2022/12/26 10:32:31;;;;;;;;;1.00;1.00;;;;;12.08;81.87;99554.75;5037760;28;8836;-58
2022/12/26 10:34:59;;;;;;;;;0.00;0.00;;;;;12.18;81.47;99565.44;5037687;28;8914;-59
2022/12/26 10:37:29;;;;;;;;;0.00;0.00;;;;;12.31;81.23;99568.66;5037216;28;8824;-58
2022/12/26 10:39:57;;;;;;;;;1.00;1.00;;;;;12.37;80.90;99558.25;5037676;28;8914;-59
2022/12/26 10:42:25;;;;;;;;;2.00;2.00;;;;;12.29;81.21;99567.94;5037478;28;8837;-58
2022/12/26 10:44:53;;;;;;;;;0.00;0.00;;;;;12.15;81.79;99573.75;5037011;28;8847;-57
2022/12/26 10:47:20;;;;;;;;;0.00;0.00;;;;;12.00;82.08;99564.47;5037101;28;8987;-57
2022/12/26 10:49:48;;;;;;;;;0.75;0.75;;;;;11.95;81.70;99562.19;5036489;28;8830;-59
2022/12/26 10:52:16;;;;;;;;;0.50;0.50;;;;;11.97;81.53;99571.91;5036551;28;8845;-59
2022/12/26 10:54:44;;;;;;;;;0.00;0.00;;;;;11.98;81.15;99556.59;5037207;28;8824;-57
2022/12/26 10:57:12;;;;;;;;;1.00;1.00;;;;;12.02;81.21;99568.66;5037290;28;9526;-60
2022/12/26 10:59:40;;;;;;;;;1.00;1.00;;;;;12.01;81.26;99569.66;5037009;28;8852;-60
2022/12/26 11:02:08;;;;;;;;;0.00;0.00;;;;;11.97;81.44;99555.91;5036379;28;9568;-59
2022/12/26 11:04:36;;;;;;;;;1.00;0.50;;;;;11.89;81.50;99553.91;5036578;28;8848;-58
2022/12/26 11:07:24;;;;;;;;;0.00;0.00;;;;;11.80;81.58;99549.44;5035837;28;8852;-59
2022/12/26 11:09:56;;;;;;;;;1.00;0.50;;;;;11.74;82.02;99549.16;5035128;28;8832;-59
2022/12/26 11:12:24;;;;;;;;;0.00;0.00;;;;;11.66;81.93;99552.50;5035800;28;8887;-59
2022/12/26 11:14:52;;;;;;;;;0.50;0.00;;;;;11.64;82.13;99556.28;5035793;28;9561;-59
2022/12/26 11:17:20;;;;;;;;;19.00;17.50;;;;;11.62;82.25;99560.91;5035594;28;8836;-59
2022/12/26 11:19:47;;;;;;;;;6.75;6.75;;;;;11.64;81.55;99553.59;5035265;28;8879;-59
2022/12/26 11:22:16;;;;;;;;;14.00;13.50;;;;;11.67;81.59;99564.03;5035773;28;8863;-60
2022/12/26 11:24:44;;;;;;;;;10.50;9.50;;;;;11.68;81.55;99560.38;5035484;28;8926;-58
2022/12/26 11:27:12;;;;;;;;;0.00;0.00;;;;;11.70;81.58;99563.72;5035398;28;8832;-60
2022/12/26 11:29:41;;;;;;;;;0.50;0.00;;;;;11.72;81.15;99564.44;5036018;28;8854;-60
2022/12/26 11:32:09;;;;;;;;;1.00;1.00;;;;;11.73;80.92;99558.97;5036335;28;8911;-59
2022/12/26 11:34:38;;;;;;;;;1.00;1.00;;;;;11.75;80.72;99548.16;5036311;28;9601;-59
2022/12/26 11:37:06;;;;;;;;;0.50;0.50;;;;;11.77;80.79;99549.72;5036772;28;8839;-59
2022/12/26 11:39:34;;;;;;;;;0.25;0.25;;;;;11.74;80.61;99555.31;5036275;28;8898;-60
2022/12/26 11:42:02;;;;;;;;;2.00;1.00;;;;;11.72;80.63;99567.09;5036382;28;8833;-58
2022/12/26 11:44:30;;;;;;;;;1.00;1.00;;;;;11.68;80.33;99565.69;5036021;28;8880;-60
2022/12/26 11:46:58;;;;;;;;;1.00;1.00;;;;;11.65;81.09;99577.47;5036312;28;8844;-60
2022/12/26 11:49:28;;;;;;;;;0.00;0.00;;;;;11.63;80.71;99560.78;5036156;28;8844;-60
2022/12/26 11:51:55;;;;;;;;;0.75;0.75;;;;;11.66;80.71;99583.63;5035578;28;8926;-60
2022/12/26 11:54:26;;;;;;;;;0.75;0.75;;;;;11.64;80.72;99565.13;5035415;28;8840;-60
2022/12/26 11:56:54;;;;;;;;;0.00;0.00;;;;;11.58;80.08;99570.16;5035201;28;8921;-61
2022/12/26 11:59:23;;;;;;;;;0.25;0.25;;;;;11.54;80.78;99576.72;5035791;28;8828;-60
2022/12/26 12:01:51;;;;;;;;;1.00;1.00;;;;;11.58;80.31;99579.00;5034920;28;8863;-59
2022/12/26 12:04:20;;;;;;;;;1.00;0.00;;;;;11.66;80.64;99578.31;5034796;28;8844;-61
2022/12/26 12:06:48;;;;;;;;;1.00;1.00;;;;;11.72;79.83;99585.75;5035064;28;9498;-60
2022/12/26 12:09:16;;;;;;;;;0.00;0.00;;;;;11.73;79.82;99572.31;5034404;28;9010;-60
2022/12/26 12:11:44;;;;;;;;;0.00;0.00;;;;;11.74;79.36;99559.81;5034158;28;8875;-61
2022/12/26 12:14:12;;;;;;;;;0.25;0.25;;;;;11.75;79.76;99578.34;5033716;28;8839;-61
2022/12/26 12:16:40;;;;;;;;;0.00;0.00;;;;;11.75;79.95;99575.66;5033467;28;8879;-60
2022/12/26 12:19:09;;;;;;;;;1.00;0.00;;;;;11.74;79.22;99571.31;5033346;28;8895;-61
2022/12/26 12:21:36;;;;;;;;;12.75;12.75;;;;;11.72;79.83;99575.94;5033475;28;8828;-61
2022/12/26 12:24:05;;;;;;;;;3.00;3.00;;;;;11.70;80.10;99569.91;5033969;28;9016;-58
2022/12/26 12:26:34;;;;;;;;;5.00;5.00;;;;;11.69;79.87;99568.22;5016583;28;8829;-60
2022/12/26 12:29:02;;;;;;;;;4.00;4.00;;;;;11.67;80.05;99562.19;5035027;28;8859;-59
2022/12/26 12:31:30;;;;;;;;;2.00;1.50;;;;;11.65;80.00;99564.16;5034881;28;8844;-61
2022/12/26 12:33:58;;;;;;;;;1.50;1.50;;;;;11.63;80.17;99554.59;5034812;28;8898;-60
2022/12/26 12:36:26;;;;;;;;;3.25;1.50;;;;;11.39;79.85;99551.44;5034633;28;8947;-60
2022/12/26 12:38:54;;;;;;;;;0.00;0.00;;;;;11.12;80.65;99538.72;5033966;28;8837;-61
2022/12/26 12:41:23;;;;;;;;;4.00;3.00;;;;;10.89;81.01;99549.69;5035151;28;8859;-60
2022/12/26 12:43:51;;;;;;;;;0.00;0.00;;;;;10.71;81.96;99557.47;5034016;28;9475;-61
2022/12/26 12:46:19;;;;;;;;;0.25;0.25;;;;;10.58;82.56;99572.81;5033903;28;9596;-60
2022/12/26 12:48:47;;;;;;;;;0.00;0.00;;;;;10.53;82.06;99564.38;5033545;28;8840;-61
2022/12/26 12:51:15;;;;;;;;;1.00;1.00;;;;;10.51;82.27;99557.50;5034085;28;8852;-59
2022/12/26 12:53:43;;;;;;;;;0.25;0.00;;;;;10.53;82.66;99553.72;5034167;28;8828;-60
2022/12/26 12:56:11;;;;;;;;;1.50;1.50;;;;;10.54;82.10;99551.94;5033678;28;9585;-61
2022/12/26 12:58:39;;;;;;;;;0.50;0.50;;;;;10.52;82.47;99552.03;5033314;28;8836;-60
2022/12/26 13:01:07;;;;;;;;;0.50;0.00;;;;;10.53;82.09;99550.22;5033779;28;8841;-59
2022/12/26 13:03:36;;;;;;;;;1.00;1.00;;;;;10.57;82.04;99546.31;5033902;28;8840;-61
2022/12/26 13:06:04;;;;;;;;;1.00;0.75;;;;;10.60;82.47;99562.88;5033649;28;8852;-60
2022/12/26 13:08:32;;;;;;;;;0.00;0.00;;;;;10.62;81.84;99568.91;5033774;28;8828;-60
2022/12/26 13:11:00;;;;;;;;;0.50;0.50;;;;;10.65;81.67;99555.34;5033453;28;8858;-61
2022/12/26 13:13:28;;;;;;;;;1.00;1.00;;;;;10.70;81.75;99557.63;5032787;28;8840;-59
2022/12/26 13:15:57;;;;;;;;;1.00;1.00;;;;;10.74;81.58;99567.88;5033493;28;8847;-61
2022/12/26 13:18:25;;;;;;;;;0.25;0.00;;;;;10.78;81.75;99577.25;5033351;28;8998;-61
2022/12/26 13:20:53;;;;;;;;;1.00;1.00;;;;;10.80;81.05;99554.03;5033721;28;8836;-60
2022/12/26 13:26:06;;;;;;;;;0.00;0.00;;;;;10.82;80.99;99557.41;5033650;28;8926;-61
2022/12/26 13:28:34;;;;;;;;;1.00;1.00;;;;;10.80;80.82;99570.00;5034132;28;8870;-61
2022/12/26 13:31:02;;;;;;;;;0.00;0.00;;;;;10.77;81.21;99570.25;5034482;28;8864;-61
2022/12/26 13:33:30;;;;;;;;;0.00;0.00;;;;;10.76;81.55;99607.69;5034738;28;8825;-61
2022/12/26 13:35:58;;;;;;;;;1.00;1.00;;;;;10.69;81.46;99614.53;5034211;28;8928;-61
2022/12/26 13:38:27;;;;;;;;;1.00;1.00;;;;;10.47;81.55;99607.50;5034298;28;8910;-61
2022/12/26 13:40:55;;;;;;;;;0.00;0.00;;;;;10.21;81.46;99608.84;5034107;28;8868;-59
2022/12/26 13:46:08;;;;;;;;;1.00;0.00;;;;;9.77;82.90;99630.25;5033937;28;8844;-61
2022/12/26 13:48:37;;;;;;;;;0.00;0.00;;;;;9.62;83.06;99630.63;5034208;28;8849;-61
2022/12/26 13:51:04;;;;;;;;;0.75;0.00;;;;;9.53;83.47;99642.00;5036746;28;8886;-60
2022/12/26 13:53:32;;;;;;;;;1.00;0.00;;;;;9.46;83.34;99640.81;5037700;28;8829;-61
2022/12/26 13:56:01;;;;;;;;;0.75;0.50;;;;;9.43;84.11;99641.88;5037852;28;8844;-61